Time;durP1;ratioP1;P1;durP2;ratioP2;P2;SDS_P1;SDS_P2;PMS_P1;PMS_P2;Temp;Humidity;BMP_temperature;BMP_pressure;BME280_temperature;BME280_humidity;BME280_pressure;Samples;Min_cycle;Max_cycle;Signal;HPM_P1;HPM_P2
2022/11/04 00:01:51;;;;;;;14.17;8.03;;;10.00;99.90;;;;;;5066958;28;20190;-71
2022/11/04 00:04:19;;;;;;;17.27;7.00;;;10.00;99.90;;;;;;5082246;28;20179;-71
2022/11/04 00:06:45;;;;;;;13.33;7.40;;;10.00;99.90;;;;;;5082009;28;20699;-71
2022/11/04 00:09:14;;;;;;;14.57;6.83;;;10.00;99.90;;;;;;5077843;28;20700;-71
2022/11/04 00:14:24;;;;;;;14.47;6.33;;;10.00;99.90;;;;;;5068966;28;20233;-71
2022/11/04 00:30:30;;;;;;;12.63;8.03;;;10.00;99.90;;;;;;5082270;28;20287;-71
2022/11/04 00:35:40;;;;;;;12.40;7.03;;;10.00;99.90;;;;;;5075138;28;20222;-71
2022/11/04 00:38:05;;;;;;;13.47;7.80;;;10.00;99.90;;;;;;5054000;28;20585;-71
2022/11/04 00:40:31;;;;;;;11.97;7.33;;;10.00;99.90;;;;;;5084074;28;20687;-71
2022/11/04 00:42:56;;;;;;;14.23;8.07;;;10.00;99.90;;;;;;5079120;28;20337;-71
2022/11/04 00:45:22;;;;;;;14.40;7.80;;;10.00;99.90;;;;;;5056534;28;20624;-71
2022/11/04 00:47:47;;;;;;;13.60;7.87;;;10.00;99.90;;;;;;5065670;28;20638;-71
2022/11/04 00:50:13;;;;;;;14.77;7.80;;;10.00;99.90;;;;;;5081476;28;20224;-71
2022/11/04 00:52:38;;;;;;;12.10;8.07;;;9.90;99.90;;;;;;5073869;28;20187;-71
2022/11/04 00:55:04;;;;;;;14.70;8.00;;;10.00;99.90;;;;;;5058637;28;20187;-71
2022/11/04 00:57:30;;;;;;;13.23;8.10;;;9.90;99.90;;;;;;5078681;28;20240;-71
2022/11/04 00:59:56;;;;;;;14.97;8.53;;;9.90;99.90;;;;;;5075471;28;20292;-71
2022/11/04 01:02:22;;;;;;;13.70;8.57;;;9.90;99.90;;;;;;5080598;28;20693;-71
2022/11/04 01:04:47;;;;;;;13.10;8.27;;;9.80;99.90;;;;;;5082128;28;20186;-71
2022/11/04 01:07:13;;;;;;;13.43;8.17;;;9.80;99.90;;;;;;5063119;28;20208;-71
2022/11/04 01:09:38;;;;;;;16.97;8.60;;;9.80;99.90;;;;;;5074326;28;21150;-71
2022/11/04 01:12:04;;;;;;;13.80;8.63;;;9.80;99.90;;;;;;5080409;28;20215;-71
2022/11/04 01:14:30;;;;;;;14.87;8.23;;;9.80;99.90;;;;;;5083034;28;20214;-71
2022/11/04 01:16:55;;;;;;;18.83;9.17;;;9.80;99.90;;;;;;5076312;28;20206;-71
2022/11/04 01:19:21;;;;;;;15.03;8.30;;;9.70;99.90;;;;;;5067636;28;20259;-71
2022/11/04 01:21:50;;;;;;;16.30;8.77;;;9.70;99.90;;;;;;5082060;28;20207;-71
2022/11/04 01:24:16;;;;;;;17.60;9.10;;;9.70;99.90;;;;;;5081350;28;20328;-71
2022/11/04 01:26:41;;;;;;;17.27;8.33;;;9.70;99.90;;;;;;5068738;28;20236;-71
2022/11/04 01:29:07;;;;;;;16.80;8.57;;;9.70;99.90;;;;;;5065639;28;20219;-71
2022/11/04 01:31:33;;;;;;;14.17;9.23;;;9.60;99.90;;;;;;5065015;28;20310;-71
2022/11/04 01:33:58;;;;;;;14.60;8.23;;;9.60;99.90;;;;;;5079375;28;20621;-71
2022/11/04 01:36:25;;;;;;;13.63;8.67;;;9.60;99.90;;;;;;5066758;28;20711;-71
2022/11/04 01:38:50;;;;;;;12.83;9.23;;;9.60;99.90;;;;;;5081174;28;20209;-71
2022/11/04 01:41:19;;;;;;;17.10;9.17;;;9.60;99.90;;;;;;5080590;28;20199;-70
2022/11/04 01:43:52;;;;;;;14.57;8.87;;;9.60;99.90;;;;;;5071664;28;20182;-71
2022/11/04 01:46:29;;;;;;;13.60;7.83;;;9.60;99.90;;;;;;5075703;28;20301;-70
2022/11/04 01:49:35;;;;;;;19.13;9.53;;;9.60;99.90;;;;;;5057963;28;20237;-71
2022/11/04 01:52:05;;;;;;;11.90;8.33;;;9.60;99.90;;;;;;5057906;28;20202;-70
2022/11/04 01:54:33;;;;;;;17.23;8.90;;;9.70;99.90;;;;;;5065851;28;20291;-71
2022/11/04 01:57:01;;;;;;;14.93;9.17;;;9.70;99.90;;;;;;5070873;28;20246;-71
2022/11/04 01:59:32;;;;;;;15.47;8.27;;;9.70;99.90;;;;;;5082065;28;20222;-71
2022/11/04 02:01:57;;;;;;;16.87;9.30;;;9.70;99.90;;;;;;5068615;28;20309;-71
2022/11/04 02:04:26;;;;;;;15.33;8.10;;;9.70;99.90;;;;;;5055655;28;20341;-71
2022/11/04 02:06:55;;;;;;;13.77;8.07;;;9.70;99.90;;;;;;5078818;28;20723;-71
2022/11/04 02:09:22;;;;;;;14.83;8.77;;;9.70;99.90;;;;;;5074265;28;20214;-71
2022/11/04 02:14:33;;;;;;;17.37;8.67;;;9.70;99.90;;;;;;5081770;28;20217;-71
2022/11/04 02:17:35;;;;;;;12.30;8.33;;;9.70;99.90;;;;;;5079038;28;20705;-71
2022/11/04 02:20:18;;;;;;;17.23;8.97;;;9.70;99.90;;;;;;5060780;28;20229;-71
2022/11/04 02:23:13;;;;;;;20.47;8.40;;;9.80;99.90;;;;;;5065920;28;20185;-71
2022/11/04 02:25:50;;;;;;;13.13;8.17;;;9.80;99.90;;;;;;5057311;28;20269;-71
2022/11/04 02:28:21;;;;;;;15.83;8.67;;;9.80;99.90;;;;;;5054602;28;20287;-70
2022/11/04 02:30:57;;;;;;;15.03;8.90;;;9.70;99.90;;;;;;5080255;28;20206;-71
2022/11/04 02:33:46;;;;;;;15.20;8.37;;;9.70;99.90;;;;;;5065977;28;20209;-71
2022/11/04 02:36:40;;;;;;;18.67;9.23;;;9.70;99.90;;;;;;5064687;28;20332;-71
2022/11/04 02:39:24;;;;;;;16.63;9.00;;;9.70;99.90;;;;;;5066791;28;20211;-71
2022/11/04 02:42:00;;;;;;;14.30;8.87;;;9.70;99.90;;;;;;5075582;28;20286;-72
2022/11/04 02:44:34;;;;;;;14.20;8.03;;;9.70;99.90;;;;;;5075920;28;20618;-70
2022/11/04 02:47:13;;;;;;;14.97;8.83;;;9.70;99.90;;;;;;5068594;28;20257;-71
2022/11/04 02:49:57;;;;;;;15.30;9.03;;;9.70;99.90;;;;;;5062980;28;20203;-71
2022/11/04 02:52:43;;;;;;;20.07;9.20;;;9.70;99.90;;;;;;5070073;28;20174;-70
2022/11/04 02:55:13;;;;;;;14.73;8.50;;;9.60;99.90;;;;;;5072941;28;20699;-70
2022/11/04 02:57:41;;;;;;;17.67;8.67;;;9.60;99.90;;;;;;5076570;28;20221;-70
2022/11/04 03:00:09;;;;;;;20.00;8.70;;;9.60;99.90;;;;;;5079378;28;20841;-71
2022/11/04 03:02:55;;;;;;;16.47;9.27;;;9.60;99.90;;;;;;5065916;28;20221;-71
2022/11/04 03:05:28;;;;;;;13.53;8.73;;;9.60;99.90;;;;;;5056722;28;20708;-71
2022/11/04 03:07:58;;;;;;;17.03;9.13;;;9.60;99.90;;;;;;5057853;28;20207;-70
2022/11/04 03:10:37;;;;;;;19.40;8.73;;;9.60;99.90;;;;;;5075396;28;20186;-70
2022/11/04 03:13:09;;;;;;;13.77;8.70;;;9.50;99.90;;;;;;5078903;28;20203;-71
2022/11/04 03:15:38;;;;;;;15.53;9.03;;;9.60;99.90;;;;;;5058558;28;20214;-70
2022/11/04 03:18:19;;;;;;;12.77;9.50;;;9.60;99.90;;;;;;5075964;28;20213;-71
2022/11/04 03:20:47;;;;;;;15.50;9.20;;;9.60;99.90;;;;;;5057975;28;20210;-70
2022/11/04 03:23:13;;;;;;;16.90;8.40;;;9.70;99.90;;;;;;5079091;28;20211;-71
2022/11/04 03:25:45;;;;;;;14.63;9.03;;;9.70;99.90;;;;;;5079659;28;20170;-71
2022/11/04 03:28:42;;;;;;;17.67;9.00;;;9.70;99.90;;;;;;5057979;28;20313;-71
2022/11/04 03:31:12;;;;;;;16.03;8.73;;;9.70;99.90;;;;;;5065571;28;20214;-71
2022/11/04 03:33:40;;;;;;;13.23;8.50;;;9.70;99.90;;;;;;5079987;28;20214;-71
2022/11/04 03:36:07;;;;;;;15.10;8.80;;;9.70;99.90;;;;;;5066029;28;20211;-71
2022/11/04 03:38:34;;;;;;;17.43;9.30;;;9.80;99.90;;;;;;5079792;28;20221;-71
2022/11/04 03:41:02;;;;;;;18.57;9.00;;;9.70;99.90;;;;;;5055996;28;20210;-71
2022/11/04 03:43:29;;;;;;;14.43;9.03;;;9.80;99.90;;;;;;5068662;28;20207;-71
2022/11/04 03:45:55;;;;;;;14.53;8.83;;;9.80;99.90;;;;;;5076662;28;20627;-71
2022/11/04 03:48:21;;;;;;;17.73;9.17;;;9.80;99.90;;;;;;5059024;28;20215;-71
2022/11/04 03:50:48;;;;;;;14.50;8.90;;;9.80;99.90;;;;;;5079749;28;20214;-71
2022/11/04 03:53:20;;;;;;;16.33;9.03;;;9.80;99.90;;;;;;5061515;28;20208;-72
2022/11/04 03:56:01;;;;;;;15.37;9.07;;;9.80;99.90;;;;;;5077895;28;20194;-71
2022/11/04 03:58:33;;;;;;;15.37;9.10;;;9.80;99.90;;;;;;5073977;28;20202;-71
2022/11/04 04:01:12;;;;;;;22.30;9.80;;;9.80;99.90;;;;;;5076319;28;20701;-71
2022/11/04 04:03:53;;;;;;;14.77;8.87;;;9.80;99.90;;;;;;5080215;28;20209;-71
2022/11/04 04:06:26;;;;;;;21.07;8.83;;;9.80;99.90;;;;;;5110165;22;20293;-72
2022/11/04 04:08:56;;;;;;;14.53;8.80;;;9.80;99.90;;;;;;5115838;28;20206;-69
2022/11/04 04:11:44;;;;;;;19.03;8.50;;;9.80;99.90;;;;;;5102156;28;20705;-72
2022/11/04 04:14:39;;;;;;;14.93;8.90;;;9.80;99.90;;;;;;5100474;28;20259;-72
2022/11/04 04:17:11;;;;;;;14.03;8.37;;;9.80;99.90;;;;;;5098711;28;20642;-71
2022/11/04 04:19:37;;;;;;;18.63;9.07;;;9.80;99.90;;;;;;5100852;28;20173;-71
2022/11/04 04:22:13;;;;;;;15.57;8.87;;;9.80;99.90;;;;;;5082185;28;20218;-71
2022/11/04 04:27:31;;;;;;;13.67;8.77;;;9.90;99.90;;;;;;5087077;28;20583;-72
2022/11/04 04:30:01;;;;;;;28.47;9.53;;;9.80;99.90;;;;;;5082888;28;20280;-72
2022/11/04 04:32:31;;;;;;;15.17;8.37;;;9.80;99.90;;;;;;5102888;28;20219;-72
2022/11/04 04:37:43;;;;;;;16.80;8.27;;;9.80;99.90;;;;;;5103152;28;20632;-72
2022/11/04 04:45:43;;;;;;;14.13;9.03;;;9.80;99.90;;;;;;5100155;28;20587;-72
2022/11/04 04:48:11;;;;;;;12.83;8.80;;;9.80;99.90;;;;;;5097104;28;20210;-72
2022/11/04 04:50:41;;;;;;;14.77;8.77;;;9.90;99.90;;;;;;5101997;28;20205;-71
2022/11/04 04:53:06;;;;;;;15.30;8.63;;;9.90;99.90;;;;;;5096662;28;20201;-72
2022/11/04 04:55:32;;;;;;;14.43;9.23;;;9.90;99.90;;;;;;5077716;28;20289;-72
2022/11/04 04:57:58;;;;;;;16.83;9.47;;;9.90;99.90;;;;;;5099115;28;20222;-72
2022/11/04 05:00:24;;;;;;;15.63;8.90;;;9.90;99.90;;;;;;5102874;28;20209;-72
2022/11/04 05:02:50;;;;;;;15.10;8.57;;;10.00;99.90;;;;;;5099105;28;20293;-71
2022/11/04 05:05:17;;;;;;;13.97;8.00;;;10.00;99.90;;;;;;5098570;28;20302;-70
2022/11/04 05:07:43;;;;;;;15.23;9.60;;;10.00;99.90;;;;;;5083611;28;20656;-72
2022/11/04 05:10:11;;;;;;;17.90;9.00;;;9.90;99.90;;;;;;5098326;28;20553;-72
2022/11/04 05:15:23;;;;;;;17.93;9.10;;;9.90;99.90;;;;;;5098561;28;20297;-71
2022/11/04 05:17:54;;;;;;;16.57;8.80;;;9.90;99.90;;;;;;5099275;28;20700;-71
2022/11/04 05:20:20;;;;;;;16.90;9.60;;;9.90;99.90;;;;;;5095940;28;20202;-72
2022/11/04 05:22:45;;;;;;;17.67;9.37;;;10.00;99.90;;;;;;5101364;28;20536;-72
2022/11/04 05:25:11;;;;;;;15.40;9.73;;;9.90;99.90;;;;;;5100539;28;20703;-72
2022/11/04 05:27:36;;;;;;;15.10;8.67;;;10.00;99.90;;;;;;5080947;28;20336;-72
2022/11/04 05:30:02;;;;;;;17.60;9.67;;;10.00;99.90;;;;;;5080861;28;20239;-72
2022/11/04 05:32:30;;;;;;;13.30;9.00;;;10.00;99.90;;;;;;5102023;28;20210;-72
2022/11/04 05:34:55;;;;;;;17.67;9.53;;;10.00;99.90;;;;;;5078719;28;20179;-72
2022/11/04 05:37:21;;;;;;;15.20;10.23;;;10.00;99.90;;;;;;5082116;28;20194;-71
2022/11/04 05:39:46;;;;;;;13.17;8.80;;;10.00;99.90;;;;;;5100632;28;20214;-74
2022/11/04 05:42:12;;;;;;;15.30;9.90;;;10.00;99.90;;;;;;5081972;28;20206;-72
2022/11/04 05:44:37;;;;;;;17.37;9.83;;;10.10;99.90;;;;;;5095068;28;20220;-72
2022/11/04 05:47:03;;;;;;;12.37;9.53;;;10.10;99.90;;;;;;5098841;28;20213;-72
2022/11/04 05:49:28;;;;;;;15.87;9.77;;;10.10;99.90;;;;;;5084881;28;20178;-72
2022/11/04 05:51:54;;;;;;;13.20;9.77;;;10.10;99.90;;;;;;5097615;28;20301;-72
2022/11/04 05:54:19;;;;;;;15.93;10.27;;;10.10;99.90;;;;;;5077593;28;20234;-72
2022/11/04 05:56:45;;;;;;;19.83;10.27;;;10.00;99.90;;;;;;5100745;28;20499;-72
2022/11/04 05:59:11;;;;;;;17.93;10.17;;;10.10;99.90;;;;;;5097943;28;20208;-72
2022/11/04 06:01:41;;;;;;;16.27;10.23;;;10.10;99.90;;;;;;5090809;28;20245;-72
2022/11/04 06:04:12;;;;;;;13.27;9.80;;;10.10;99.90;;;;;;5079479;28;20211;-72
2022/11/04 06:06:38;;;;;;;15.20;10.10;;;10.10;99.90;;;;;;5076852;28;20795;-72
2022/11/04 06:09:04;;;;;;;14.83;9.80;;;10.10;99.90;;;;;;5075590;28;20298;-72
2022/11/04 06:11:30;;;;;;;16.57;9.80;;;10.10;99.90;;;;;;5077453;28;20207;-72
2022/11/04 06:13:56;;;;;;;18.60;11.20;;;10.10;99.90;;;;;;5074051;28;20253;-72
2022/11/04 06:16:22;;;;;;;16.50;10.13;;;10.10;99.90;;;;;;5082884;28;20246;-71
2022/11/04 06:18:47;;;;;;;15.70;10.37;;;10.10;99.90;;;;;;5074016;28;20251;-72
2022/11/04 06:21:13;;;;;;;16.50;11.30;;;10.10;99.90;;;;;;5077648;28;20207;-72
2022/11/04 06:23:42;;;;;;;17.57;10.70;;;10.10;99.90;;;;;;5063606;28;20592;-71
2022/11/04 06:26:09;;;;;;;16.37;10.33;;;10.20;99.90;;;;;;5093237;28;20612;-72
2022/11/04 06:28:34;;;;;;;16.77;9.90;;;10.20;99.90;;;;;;5064062;28;20183;-72
2022/11/04 06:31:03;;;;;;;21.43;10.67;;;10.20;99.90;;;;;;5077689;28;20712;-72
2022/11/04 06:33:29;;;;;;;16.30;10.70;;;10.20;99.90;;;;;;5093061;28;20232;-71
2022/11/04 06:36:03;;;;;;;14.20;10.97;;;10.20;99.90;;;;;;5089491;28;20722;-71
2022/11/04 06:38:31;;;;;;;20.73;11.57;;;10.30;99.90;;;;;;5075320;28;20289;-73
2022/11/04 06:40:56;;;;;;;16.60;11.23;;;10.30;99.90;;;;;;5081585;28;20237;-72
2022/11/04 06:43:22;;;;;;;17.30;11.20;;;10.30;99.90;;;;;;5101826;28;20185;-71
2022/11/04 06:45:59;;;;;;;17.77;11.37;;;10.30;99.90;;;;;;5082570;28;20754;-72
2022/11/04 06:48:25;;;;;;;18.30;11.57;;;10.40;99.90;;;;;;5077603;28;20235;-72
2022/11/04 06:50:51;;;;;;;16.67;10.70;;;10.40;99.90;;;;;;5089627;28;20207;-72
2022/11/04 06:53:17;;;;;;;16.53;12.13;;;10.40;99.90;;;;;;5086806;28;20285;-70
2022/11/04 06:55:43;;;;;;;15.23;10.77;;;10.40;99.90;;;;;;5081695;28;20284;-71
2022/11/04 06:58:09;;;;;;;20.30;11.77;;;10.40;99.90;;;;;;5080748;28;20175;-72
2022/11/04 07:00:34;;;;;;;19.70;11.17;;;10.40;99.90;;;;;;5099947;28;20213;-73
2022/11/04 07:03:00;;;;;;;20.40;14.07;;;10.50;99.90;;;;;;5080084;28;20224;-72
2022/11/04 07:05:25;;;;;;;19.17;11.90;;;10.40;99.90;;;;;;5071628;28;20213;-72
2022/11/04 07:07:51;;;;;;;20.10;12.73;;;10.50;99.90;;;;;;5077781;28;20236;-72
2022/11/04 07:10:16;;;;;;;19.77;13.53;;;10.50;99.90;;;;;;5071549;28;20203;-71
2022/11/04 07:12:42;;;;;;;20.90;12.40;;;10.50;99.90;;;;;;5074879;28;20626;-72
2022/11/04 07:15:08;;;;;;;18.43;12.97;;;10.50;99.90;;;;;;5061123;28;20223;-72
2022/11/04 07:17:34;;;;;;;22.93;13.67;;;10.50;99.90;;;;;;5100082;28;20233;-72
2022/11/04 07:20:00;;;;;;;21.17;12.93;;;10.60;99.90;;;;;;5080057;28;20244;-72
2022/11/04 07:22:25;;;;;;;15.87;12.23;;;10.60;99.90;;;;;;5088572;28;20652;-72
2022/11/04 07:24:51;;;;;;;20.00;12.87;;;10.60;99.90;;;;;;5088988;28;20221;-72
2022/11/04 07:27:16;;;;;;;20.37;14.33;;;10.60;99.90;;;;;;5098508;28;20743;-71
2022/11/04 07:29:42;;;;;;;20.13;13.23;;;10.60;99.90;;;;;;5067295;28;20206;-72
2022/11/04 07:32:07;;;;;;;19.77;13.07;;;10.60;99.90;;;;;;5080354;28;20681;-70
2022/11/04 07:34:33;;;;;;;18.87;13.13;;;10.70;99.90;;;;;;5083807;28;20644;-72
2022/11/04 07:36:58;;;;;;;18.37;13.27;;;10.70;99.90;;;;;;5080227;28;20228;-73
2022/11/04 07:39:24;;;;;;;18.77;13.73;;;10.80;99.90;;;;;;5077386;28;20234;-72
2022/11/04 07:41:50;;;;;;;20.47;13.30;;;10.90;99.90;;;;;;5085291;28;20195;-72
2022/11/04 07:44:15;;;;;;;19.17;12.53;;;10.90;99.90;;;;;;5098509;28;20681;-70
2022/11/04 07:46:41;;;;;;;18.13;12.13;;;11.00;99.90;;;;;;5086101;28;20245;-72
2022/11/04 07:49:06;;;;;;;17.73;12.30;;;11.00;99.90;;;;;;5063808;28;20175;-72
2022/11/04 07:51:33;;;;;;;22.47;11.40;;;11.10;99.90;;;;;;5078437;28;20209;-71
2022/11/04 07:53:59;;;;;;;18.77;12.40;;;11.20;99.90;;;;;;5092101;28;20259;-72
2022/11/04 07:56:25;;;;;;;19.03;12.43;;;11.20;99.90;;;;;;5065549;28;20628;-72
2022/11/04 07:58:51;;;;;;;18.17;12.03;;;11.30;99.90;;;;;;5089305;28;20208;-72
2022/11/04 08:01:20;;;;;;;20.33;12.90;;;11.50;99.90;;;;;;5097166;28;20171;-72
2022/11/04 08:03:45;;;;;;;18.87;11.77;;;11.60;99.90;;;;;;5071631;28;20210;-72
2022/11/04 08:06:12;;;;;;;20.63;11.83;;;11.60;99.90;;;;;;5091300;28;20591;-72
2022/11/04 08:08:38;;;;;;;18.20;10.83;;;11.70;99.90;;;;;;5096411;28;20751;-73
2022/11/04 08:11:10;;;;;;;18.57;12.47;;;11.70;99.90;;;;;;5082259;28;20340;-73
2022/11/04 08:13:37;;;;;;;21.63;13.83;;;11.80;99.90;;;;;;5063820;28;20171;-73
2022/11/04 08:16:09;;;;;;;15.20;11.37;;;11.80;99.90;;;;;;5083648;28;20615;-73
2022/11/04 08:18:35;;;;;;;16.00;11.80;;;11.90;99.90;;;;;;5095535;28;20249;-72
2022/11/04 08:21:02;;;;;;;15.43;11.35;;;11.90;99.90;;;;;;5076171;28;20210;-71
2022/11/04 08:23:29;;;;;;;15.63;10.70;;;11.90;99.90;;;;;;5066402;28;20647;-73
2022/11/04 08:25:55;;;;;;;16.00;11.33;;;11.90;99.90;;;;;;5077680;28;20293;-70
2022/11/04 08:28:22;;;;;;;13.40;9.90;;;11.90;99.90;;;;;;5098065;28;20179;-73
2022/11/04 08:31:03;;;;;;;15.77;10.93;;;11.90;99.90;;;;;;5063180;28;20207;-72
2022/11/04 08:33:31;;;;;;;17.33;9.87;;;11.90;99.90;;;;;;5076653;28;20258;-73
2022/11/04 08:36:00;;;;;;;12.53;9.97;;;11.90;99.90;;;;;;5077394;28;20217;-72
2022/11/04 08:38:25;;;;;;;14.87;10.13;;;11.90;99.90;;;;;;5087517;28;20215;-72
2022/11/04 08:40:55;;;;;;;14.30;9.80;;;11.90;99.90;;;;;;5081927;28;20209;-72
2022/11/04 08:43:20;;;;;;;14.13;10.27;;;11.90;99.90;;;;;;5106849;28;20181;-72
2022/11/04 08:45:46;;;;;;;16.03;11.13;;;11.80;99.90;;;;;;5084732;28;20267;-73
2022/11/04 08:48:12;;;;;;;14.23;10.53;;;11.90;99.90;;;;;;5081178;28;20207;-72
2022/11/04 08:50:38;;;;;;;14.93;9.77;;;11.80;99.90;;;;;;5087742;28;20213;-72
2022/11/04 08:53:04;;;;;;;13.33;9.27;;;11.90;99.90;;;;;;5089746;28;20215;-72
2022/11/04 08:55:30;;;;;;;12.95;8.70;;;11.90;99.90;;;;;;5065325;28;20199;-72
2022/11/04 08:57:56;;;;;;;13.77;8.97;;;11.90;99.90;;;;;;5080732;28;20360;-72
2022/11/04 09:00:22;;;;;;;11.40;8.33;;;11.90;99.90;;;;;;5084461;28;20287;-73
2022/11/04 09:02:47;;;;;;;11.83;8.37;;;11.90;99.90;;;;;;5083733;28;20213;-71
2022/11/04 09:05:13;;;;;;;13.47;7.93;;;11.90;99.90;;;;;;5080558;28;20218;-72
2022/11/04 09:07:40;;;;;;;12.23;8.83;;;11.90;99.90;;;;;;5069652;28;20182;-73
2022/11/04 09:10:06;;;;;;;12.53;8.63;;;11.80;99.90;;;;;;5089507;28;20185;-72
2022/11/04 09:12:32;;;;;;;15.77;9.03;;;11.80;99.90;;;;;;5082755;28;20209;-73
2022/11/04 09:14:57;;;;;;;13.20;8.23;;;11.80;99.90;;;;;;5060544;28;20272;-72
2022/11/04 09:17:24;;;;;;;14.17;9.80;;;11.80;99.90;;;;;;5102575;28;20237;-73
2022/11/04 09:19:49;;;;;;;11.87;7.90;;;11.90;99.90;;;;;;5083395;28;20655;-73
2022/11/04 09:22:15;;;;;;;13.03;9.30;;;11.80;99.90;;;;;;5063188;28;20278;-71
2022/11/04 09:24:41;;;;;;;16.47;9.20;;;11.80;99.90;;;;;;5087520;28;20209;-73
2022/11/04 09:27:06;;;;;;;14.37;8.53;;;11.80;99.90;;;;;;5076671;28;20647;-72
2022/11/04 09:29:32;;;;;;;11.23;7.90;;;11.80;99.90;;;;;;5081883;28;20250;-73
2022/11/04 09:31:59;;;;;;;13.27;7.73;;;11.80;99.90;;;;;;5080617;28;20268;-72
2022/11/04 09:34:24;;;;;;;13.97;8.87;;;11.80;99.90;;;;;;5095185;28;20182;-71
2022/11/04 09:36:53;;;;;;;11.53;8.20;;;11.80;99.90;;;;;;5082952;28;20623;-73
2022/11/04 09:39:19;;;;;;;12.00;8.53;;;11.80;99.90;;;;;;5073292;28;20335;-72
2022/11/04 09:42:19;;;;;;;16.40;8.70;;;11.80;99.90;;;;;;5087595;28;20220;-72
2022/11/04 09:44:59;;;;;;;12.63;7.80;;;11.80;99.90;;;;;;5095088;28;20645;-72
2022/11/04 09:47:26;;;;;;;14.53;9.57;;;11.80;99.90;;;;;;5076099;28;20221;-73
2022/11/04 09:49:56;;;;;;;12.73;8.70;;;11.80;99.90;;;;;;5082047;28;20175;-72
2022/11/04 09:52:29;;;;;;;12.03;8.80;;;11.80;99.90;;;;;;5094823;28;20182;-72
2022/11/04 09:55:00;;;;;;;13.83;9.13;;;11.80;99.90;;;;;;5081568;28;20677;-72
2022/11/04 09:57:26;;;;;;;13.13;8.70;;;11.90;99.90;;;;;;5063857;28;20643;-73
2022/11/04 09:59:53;;;;;;;15.30;8.23;;;11.90;99.90;;;;;;5075344;28;20259;-71
2022/11/04 10:02:33;;;;;;;15.50;8.67;;;11.90;99.90;;;;;;5087317;28;20203;-71
2022/11/04 10:05:24;;;;;;;11.20;8.47;;;11.90;99.90;;;;;;5079806;28;20202;-72
2022/11/04 10:08:08;;;;;;;11.97;8.40;;;12.00;99.90;;;;;;5076266;28;20304;-72
2022/11/04 10:10:45;;;;;;;10.97;8.57;;;11.90;99.90;;;;;;5093924;28;20240;-72
2022/11/04 10:13:47;;;;;;;12.13;8.20;;;12.00;99.90;;;;;;5079273;28;20209;-72
2022/11/04 10:16:26;;;;;;;12.90;8.83;;;11.90;99.90;;;;;;5077970;28;20647;-72
2022/11/04 10:18:52;;;;;;;12.13;8.53;;;11.90;99.90;;;;;;5086933;28;20205;-70
2022/11/04 10:21:31;;;;;;;13.97;9.23;;;11.90;99.90;;;;;;5061237;28;20575;-71
2022/11/04 10:24:04;;;;;;;12.57;7.97;;;11.90;99.90;;;;;;5087158;22;20226;-73
2022/11/04 10:26:49;;;;;;;12.30;8.37;;;11.90;99.90;;;;;;5061249;28;20715;-72
2022/11/04 10:29:25;;;;;;;13.67;8.47;;;11.90;99.90;;;;;;5065571;28;20411;-71
2022/11/04 10:31:52;;;;;;;12.40;8.30;;;11.90;99.90;;;;;;5060212;28;20179;-73
2022/11/04 10:34:27;;;;;;;10.10;8.13;;;11.80;99.90;;;;;;5070456;28;20195;-72
2022/11/04 10:36:55;;;;;;;12.97;9.27;;;11.90;99.90;;;;;;5066858;28;20304;-73
2022/11/04 10:39:31;;;;;;;11.43;8.67;;;11.80;99.90;;;;;;5072598;28;20214;-72
2022/11/04 10:41:57;;;;;;;11.17;8.93;;;11.90;99.90;;;;;;5071749;28;20206;-72
2022/11/04 10:44:27;;;;;;;13.20;8.90;;;11.80;99.90;;;;;;5073809;28;20298;-73
2022/11/04 10:46:58;;;;;;;13.03;9.57;;;11.90;99.90;;;;;;5057879;28;20262;-71
2022/11/04 10:49:45;;;;;;;11.53;9.47;;;11.90;99.90;;;;;;5070003;28;20199;-72
2022/11/04 10:52:10;;;;;;;11.90;8.83;;;11.90;99.90;;;;;;5077369;28;20649;-75
2022/11/04 10:54:42;;;;;;;16.67;11.10;;;11.90;99.90;;;;;;5074763;28;20207;-72
2022/11/04 10:57:10;;;;;;;12.20;9.03;;;11.80;99.90;;;;;;5067012;28;20707;-72
2022/11/04 10:59:53;;;;;;;15.47;10.77;;;11.90;99.90;;;;;;5072807;28;20249;-71
2022/11/04 11:02:39;;;;;;;11.77;9.40;;;11.90;99.90;;;;;;5045264;28;20214;-75
2022/11/04 11:05:16;;;;;;;10.70;8.10;;;11.80;99.90;;;;;;5059575;28;20290;-73
2022/11/04 11:07:44;;;;;;;14.90;11.27;;;11.70;99.90;;;;;;5074143;28;20383;-71
2022/11/04 11:10:25;;;;;;;11.83;9.00;;;11.70;99.90;;;;;;5073071;28;20265;-71
2022/11/04 11:12:53;;;;;;;10.33;8.57;;;11.80;99.90;;;;;;5077149;28;20207;-73
2022/11/04 11:15:32;;;;;;;13.27;11.00;;;11.80;99.90;;;;;;5056637;28;20272;-72
2022/11/04 11:18:06;;;;;;;13.17;9.27;;;11.80;99.90;;;;;;5072476;28;20300;-71
2022/11/04 11:20:36;;;;;;;17.07;10.87;;;11.80;99.90;;;;;;5060330;28;20237;-72
2022/11/04 11:23:04;;;;;;;10.17;7.53;;;11.90;99.90;;;;;;5060655;28;20217;-72
2022/11/04 11:25:32;;;;;;;12.23;7.93;;;11.80;99.90;;;;;;5053482;28;20178;-72
2022/11/04 11:28:05;;;;;;;11.23;8.23;;;11.90;99.90;;;;;;5055788;28;20593;-73
2022/11/04 11:30:51;;;;;;;11.37;9.30;;;11.90;99.90;;;;;;5078891;28;20242;-72
2022/11/04 11:33:22;;;;;;;10.53;8.13;;;11.90;99.90;;;;;;5071316;28;20203;-72
2022/11/04 11:35:52;;;;;;;12.63;8.97;;;11.90;99.90;;;;;;5069234;28;20208;-72
2022/11/04 11:38:22;;;;;;;11.63;9.17;;;12.00;99.90;;;;;;5054603;28;20214;-74
2022/11/04 11:40:51;;;;;;;10.40;8.43;;;11.90;99.90;;;;;;5076498;28;20183;-73
2022/11/04 11:43:27;;;;;;;13.77;9.43;;;11.90;99.90;;;;;;5044828;28;20236;-72
2022/11/04 11:45:56;;;;;;;16.07;9.97;;;12.00;99.90;;;;;;5077133;28;20217;-75
2022/11/04 11:48:49;;;;;;;14.77;9.97;;;11.90;99.90;;;;;;5083269;28;20203;-72
2022/11/04 11:51:23;;;;;;;13.60;9.97;;;11.90;99.90;;;;;;5070442;28;20575;-73
2022/11/04 11:54:21;;;;;;;11.43;9.80;;;11.90;99.90;;;;;;5062302;28;20219;-72
2022/11/04 11:57:21;;;;;;;14.33;10.73;;;11.90;99.90;;;;;;5011176;28;20225;-74
2022/11/04 11:59:52;;;;;;;16.57;10.70;;;11.90;99.90;;;;;;5074477;28;20226;-72
2022/11/04 12:02:28;;;;;;;11.57;9.53;;;12.00;99.90;;;;;;5072759;28;20207;-72
2022/11/04 12:04:56;;;;;;;14.70;9.57;;;12.00;99.90;;;;;;5075437;28;20191;-73
2022/11/04 12:07:39;;;;;;;12.13;10.57;;;12.00;99.90;;;;;;5052510;28;20571;-73
2022/11/04 12:10:21;;;;;;;12.00;10.13;;;12.00;99.90;;;;;;5065849;28;20260;-71
2022/11/04 12:13:10;;;;;;;15.87;11.00;;;12.00;99.90;;;;;;5074987;28;20210;-74
2022/11/04 12:16:16;;;;;;;11.27;9.80;;;12.00;99.90;;;;;;5066496;28;20736;-70
2022/11/04 12:18:59;;;;;;;12.33;9.53;;;12.00;99.90;;;;;;5067790;28;20206;-72
2022/11/04 12:21:32;;;;;;;13.53;8.77;;;12.00;99.90;;;;;;5066266;28;20689;-73
2022/11/04 12:24:14;;;;;;;12.03;9.63;;;11.90;99.90;;;;;;5073560;28;20423;-72
2022/11/04 12:27:02;;;;;;;11.07;8.77;;;11.90;99.90;;;;;;5067219;28;20208;-72
2022/11/04 12:30:02;;;;;;;10.80;8.40;;;11.90;99.90;;;;;;5060403;28;20210;-71
2022/11/04 12:32:36;;;;;;;13.30;8.50;;;11.90;99.90;;;;;;5077009;28;20638;-74
2022/11/04 12:35:38;;;;;;;12.60;9.10;;;11.90;99.90;;;;;;5072277;28;20302;-72
2022/11/04 12:38:24;;;;;;;13.90;9.80;;;11.90;99.90;;;;;;5078889;28;20218;-73
2022/11/04 12:41:12;;;;;;;11.27;9.07;;;11.80;99.90;;;;;;5051819;28;20233;-74
2022/11/04 12:44:03;;;;;;;13.57;9.40;;;11.80;99.90;;;;;;5052591;28;20231;-71
2022/11/04 12:46:41;;;;;;;10.60;8.93;;;11.80;99.90;;;;;;5076221;28;20308;-72
2022/11/04 12:49:24;;;;;;;11.03;9.70;;;11.80;99.90;;;;;;5076059;28;20209;-73
2022/11/04 12:52:03;;;;;;;10.53;8.63;;;11.70;99.90;;;;;;5072715;28;20586;-73
2022/11/04 12:55:03;;;;;;;8.73;7.67;;;11.70;99.90;;;;;;5075883;28;20715;-74
2022/11/04 12:57:37;;;;;;;9.90;8.77;;;11.80;99.90;;;;;;5074442;28;20207;-72
2022/11/04 13:00:11;;;;;;;11.73;9.77;;;11.70;99.90;;;;;;5044643;28;20238;-74
2022/11/04 13:02:42;;;;;;;10.30;8.60;;;11.70;99.90;;;;;;5069563;28;20212;-72
2022/11/04 13:05:20;;;;;;;11.30;9.00;;;11.70;99.90;;;;;;5071826;28;20305;-73
2022/11/04 13:07:52;;;;;;;10.97;9.10;;;11.70;99.90;;;;;;5074007;28;20232;-72
2022/11/04 13:10:24;;;;;;;10.10;7.37;;;11.70;99.90;;;;;;5053105;28;20186;-72
2022/11/04 13:12:52;;;;;;;12.83;9.67;;;11.60;99.90;;;;;;5070227;28;20247;-72
2022/11/04 13:15:22;;;;;;;12.80;9.80;;;11.60;99.90;;;;;;5072419;28;20217;-73
2022/11/04 13:18:03;;;;;;;10.97;9.40;;;11.60;99.90;;;;;;5076949;28;20242;-72
2022/11/04 13:20:43;;;;;;;11.40;9.33;;;11.60;99.90;;;;;;5075343;28;20216;-73
2022/11/04 13:23:19;;;;;;;16.73;11.83;;;11.70;99.90;;;;;;5075790;28;20223;-74
2022/11/04 13:25:47;;;;;;;13.47;9.97;;;11.60;99.90;;;;;;5079690;28;20178;-73
2022/11/04 13:28:18;;;;;;;14.43;9.50;;;11.60;99.90;;;;;;5060395;28;20167;-73
2022/11/04 13:31:05;;;;;;;13.53;9.63;;;11.60;99.90;;;;;;5046666;28;20225;-73
2022/11/04 13:34:04;;;;;;;11.57;9.57;;;11.60;99.90;;;;;;5053862;28;20203;-71
2022/11/04 13:36:43;;;;;;;13.57;9.97;;;11.60;99.90;;;;;;5074465;28;20723;-73